Time;durP1;ratioP1;P1;durP2;ratioP2;P2;SDS_P1;SDS_P2;PMS_P1;PMS_P2;Temp;Humidity;BMP_temperature;BMP_pressure;BME280_temperature;BME280_humidity;BME280_pressure;Samples;Min_cycle;Max_cycle;Signal;HPM_P1;HPM_P2
2021/09/22 00:00:13;;;;;;;4.30;2.60;;;;;;;;;;4998855;28;20378;-74
2021/09/22 00:02:40;;;;;;;4.20;2.53;;;;;;;;;;4999478;28;20429;-73
2021/09/22 00:05:06;;;;;;;3.60;2.75;;;;;;;;;;4998999;28;20037;-71
2021/09/22 00:07:32;;;;;;;6.95;3.00;;;;;;;;;;4999952;28;20019;-72
2021/09/22 00:09:58;;;;;;;3.40;2.80;;;;;;;;;;5000168;28;20485;-66
2021/09/22 00:12:25;;;;;;;5.28;3.00;;;;;;;;;;5000523;28;20036;-72
2021/09/22 00:14:51;;;;;;;4.95;2.92;;;;;;;;;;5000663;28;20030;-68
2021/09/22 00:17:18;;;;;;;4.55;2.60;;;;;;;;;;5000725;28;20469;-72
2021/09/22 00:19:44;;;;;;;3.78;2.70;;;;;;;;;;5000443;28;20500;-69
2021/09/22 00:22:10;;;;;;;4.20;3.05;;;;;;;;;;5000602;28;20026;-74
2021/09/22 00:24:36;;;;;;;3.63;2.97;;;;;;;;;;4998290;28;20030;-72
2021/09/22 00:27:03;;;;;;;4.80;2.67;;;;;;;;;;5000870;28;20049;-74
2021/09/22 00:29:30;;;;;;;3.92;2.85;;;;;;;;;;5000502;28;20057;-72
2021/09/22 00:31:56;;;;;;;3.40;2.42;;;;;;;;;;5000519;28;20053;-74
2021/09/22 00:34:22;;;;;;;3.55;2.70;;;;;;;;;;4998379;28;20030;-70
2021/09/22 00:36:49;;;;;;;3.85;2.83;;;;;;;;;;5000470;28;20057;-70
2021/09/22 00:39:15;;;;;;;3.95;2.67;;;;;;;;;;4998646;28;20034;-72
2021/09/22 00:41:42;;;;;;;4.40;2.80;;;;;;;;;;4999460;28;20037;-67
2021/09/22 00:44:08;;;;;;;7.93;2.65;;;;;;;;;;4999991;28;20026;-75
2021/09/22 00:46:34;;;;;;;4.80;2.78;;;;;;;;;;5000259;28;20109;-69
2021/09/22 00:49:00;;;;;;;4.85;2.85;;;;;;;;;;4996567;28;20022;-69
2021/09/22 00:51:26;;;;;;;4.15;2.65;;;;;;;;;;5000086;28;20022;-73
2021/09/22 00:53:52;;;;;;;6.07;3.83;;;;;;;;;;4999476;28;20037;-66
2021/09/22 00:56:21;;;;;;;3.38;2.75;;;;;;;;;;5001455;28;20148;-67
2021/09/22 00:58:47;;;;;;;3.83;3.00;;;;;;;;;;5001872;28;20030;-73
2021/09/22 01:01:13;;;;;;;4.93;2.60;;;;;;;;;;5004820;28;20042;-66
2021/09/22 01:03:39;;;;;;;4.57;2.70;;;;;;;;;;5004089;28;20029;-66
2021/09/22 01:06:05;;;;;;;3.35;2.45;;;;;;;;;;5004126;28;20030;-66
2021/09/22 01:08:32;;;;;;;5.97;2.95;;;;;;;;;;5004100;28;20080;-75
2021/09/22 01:10:58;;;;;;;4.72;2.80;;;;;;;;;;5003440;28;20418;-66
2021/09/22 01:13:25;;;;;;;4.20;2.53;;;;;;;;;;5004152;28;20057;-71
2021/09/22 01:15:51;;;;;;;4.97;2.58;;;;;;;;;;5003571;28;20471;-69
2021/09/22 01:18:22;;;;;;;3.97;2.97;;;;;;;;;;5002924;28;20026;-67
2021/09/22 01:20:50;;;;;;;4.03;2.70;;;;;;;;;;5003029;28;20018;-68
2021/09/22 01:23:16;;;;;;;5.00;3.00;;;;;;;;;;5002348;28;20050;-71
2021/09/22 01:25:44;;;;;;;5.07;3.08;;;;;;;;;;5003054;28;20080;-69
2021/09/22 01:28:10;;;;;;;4.32;2.95;;;;;;;;;;5003590;28;20030;-69
2021/09/22 01:30:36;;;;;;;4.07;2.85;;;;;;;;;;5001333;28;20030;-73
2021/09/22 01:33:06;;;;;;;4.22;3.10;;;;;;;;;;5000209;28;20054;-70
2021/09/22 01:35:34;;;;;;;3.90;3.30;;;;;;;;;;4999990;28;20022;-71
2021/09/22 01:38:00;;;;;;;3.80;2.90;;;;;;;;;;4998798;28;20022;-67
2021/09/22 01:40:26;;;;;;;4.13;3.03;;;;;;;;;;4998635;28;20027;-71
2021/09/22 01:42:52;;;;;;;5.45;4.03;;;;;;;;;;5000097;28;20062;-68
2021/09/22 01:45:18;;;;;;;6.22;3.90;;;;;;;;;;4999035;28;20030;-70
2021/09/22 01:47:44;;;;;;;5.07;3.50;;;;;;;;;;4999936;28;20035;-71
2021/09/22 01:50:10;;;;;;;5.07;3.65;;;;;;;;;;4999648;28;20029;-73
2021/09/22 01:52:37;;;;;;;6.32;3.75;;;;;;;;;;4999172;28;20022;-70
2021/09/22 01:55:04;;;;;;;5.15;4.20;;;;;;;;;;4998326;28;20429;-72
2021/09/22 01:57:30;;;;;;;6.38;4.05;;;;;;;;;;4999130;28;20097;-73
2021/09/22 01:59:56;;;;;;;6.50;4.13;;;;;;;;;;4998439;28;20081;-72
2021/09/22 02:02:22;;;;;;;6.40;4.07;;;;;;;;;;4999455;28;20448;-72
2021/09/22 02:04:48;;;;;;;5.82;4.65;;;;;;;;;;4999598;28;20022;-69
2021/09/22 02:07:14;;;;;;;6.68;4.03;;;;;;;;;;5000811;28;20077;-65
2021/09/22 02:09:40;;;;;;;7.53;4.18;;;;;;;;;;5000287;28;20029;-72
2021/09/22 02:12:07;;;;;;;6.63;4.55;;;;;;;;;;4998983;28;20486;-72
2021/09/22 02:14:33;;;;;;;8.00;4.22;;;;;;;;;;4998182;28;20026;-71
2021/09/22 02:16:59;;;;;;;5.68;3.60;;;;;;;;;;4997886;28;20022;-71
2021/09/22 02:19:25;;;;;;;5.20;4.28;;;;;;;;;;4998265;28;20114;-73
2021/09/22 02:21:52;;;;;;;5.10;4.18;;;;;;;;;;5002579;28;20034;-68
2021/09/22 02:24:18;;;;;;;5.65;4.63;;;;;;;;;;5004381;28;20035;-70
2021/09/22 02:26:44;;;;;;;5.38;4.03;;;;;;;;;;5004025;28;20038;-67
2021/09/22 02:29:10;;;;;;;3.90;3.13;;;;;;;;;;5003733;28;20026;-69
2021/09/22 02:31:36;;;;;;;7.63;3.30;;;;;;;;;;5004014;28;20026;-71
2021/09/22 02:34:02;;;;;;;6.05;3.40;;;;;;;;;;5002203;28;20085;-71
2021/09/22 02:36:29;;;;;;;6.43;3.40;;;;;;;;;;5004465;28;20026;-67
2021/09/22 02:38:55;;;;;;;4.88;3.28;;;;;;;;;;5003630;28;20101;-72
2021/09/22 02:41:21;;;;;;;5.13;3.45;;;;;;;;;;5002040;28;20069;-71
2021/09/22 02:43:47;;;;;;;4.10;3.00;;;;;;;;;;5003732;28;20026;-67
2021/09/22 02:46:13;;;;;;;5.88;3.08;;;;;;;;;;5004945;28;20018;-70
2021/09/22 02:48:39;;;;;;;7.65;3.17;;;;;;;;;;5005201;28;20026;-67
2021/09/22 02:51:05;;;;;;;5.00;3.60;;;;;;;;;;5004670;28;20476;-68
2021/09/22 02:53:33;;;;;;;4.25;3.03;;;;;;;;;;5005937;28;20029;-70
2021/09/22 02:55:59;;;;;;;3.53;3.15;;;;;;;;;;5002768;28;20493;-65
2021/09/22 02:58:25;;;;;;;4.18;3.25;;;;;;;;;;5004416;28;20141;-71
2021/09/22 03:00:51;;;;;;;5.88;3.47;;;;;;;;;;4999663;28;20038;-68
2021/09/22 03:03:18;;;;;;;4.40;3.00;;;;;;;;;;5004662;28;20026;-69
2021/09/22 03:05:44;;;;;;;4.32;3.30;;;;;;;;;;5003488;28;20026;-68
2021/09/22 03:08:10;;;;;;;5.30;3.75;;;;;;;;;;5004483;28;20022;-71
2021/09/22 03:10:36;;;;;;;3.60;2.85;;;;;;;;;;5005606;28;20101;-70
2021/09/22 03:13:03;;;;;;;5.10;3.72;;;;;;;;;;5002620;28;20037;-64
2021/09/22 03:15:29;;;;;;;4.60;3.33;;;;;;;;;;5004718;28;20027;-72
2021/09/22 03:17:55;;;;;;;5.07;3.33;;;;;;;;;;5002833;28;20041;-70
2021/09/22 03:20:22;;;;;;;3.83;2.95;;;;;;;;;;5004252;28;20033;-72
2021/09/22 03:22:48;;;;;;;5.78;3.53;;;;;;;;;;5004636;28;20081;-70
2021/09/22 03:25:14;;;;;;;5.65;3.13;;;;;;;;;;5005669;28;20078;-67
2021/09/22 03:27:40;;;;;;;4.07;3.38;;;;;;;;;;5004000;28;20053;-67
2021/09/22 03:30:08;;;;;;;6.22;3.00;;;;;;;;;;5004416;28;20031;-69
2021/09/22 03:32:34;;;;;;;3.80;3.35;;;;;;;;;;5005089;28;20042;-70
2021/09/22 03:35:00;;;;;;;5.32;3.13;;;;;;;;;;5003900;28;20037;-68
2021/09/22 03:37:26;;;;;;;9.10;3.20;;;;;;;;;;5003522;28;20504;-69
2021/09/22 03:39:52;;;;;;;3.72;3.30;;;;;;;;;;5001499;28;20106;-67
2021/09/22 03:42:18;;;;;;;5.20;3.08;;;;;;;;;;5004079;28;20424;-66
2021/09/22 03:44:45;;;;;;;6.07;3.72;;;;;;;;;;5001517;28;20034;-69
2021/09/22 03:47:11;;;;;;;4.18;3.00;;;;;;;;;;5002254;28;20026;-74
2021/09/22 03:49:37;;;;;;;5.00;3.25;;;;;;;;;;5004726;28;20019;-68
2021/09/22 03:52:03;;;;;;;4.15;2.90;;;;;;;;;;5002940;28;20489;-72
2021/09/22 03:54:29;;;;;;;3.72;3.00;;;;;;;;;;5002805;28;20097;-72
2021/09/22 03:56:55;;;;;;;5.20;2.72;;;;;;;;;;5003571;28;20046;-72
2021/09/22 03:59:21;;;;;;;4.10;2.70;;;;;;;;;;5001316;28;20038;-69
2021/09/22 04:01:47;;;;;;;4.35;2.70;;;;;;;;;;5003579;28;20511;-72
2021/09/22 04:04:14;;;;;;;4.53;2.90;;;;;;;;;;5002135;28;20038;-68
2021/09/22 04:06:40;;;;;;;5.82;2.97;;;;;;;;;;5001960;28;20050;-71
2021/09/22 04:09:10;;;;;;;4.30;2.45;;;;;;;;;;5003530;28;20022;-66
2021/09/22 04:11:36;;;;;;;5.50;2.65;;;;;;;;;;5003738;28;20022;-74
2021/09/22 04:14:02;;;;;;;4.93;2.42;;;;;;;;;;5013332;28;20026;-66
2021/09/22 04:16:28;;;;;;;2.63;2.20;;;;;;;;;;5023724;28;20104;-70
2021/09/22 04:18:54;;;;;;;3.58;2.47;;;;;;;;;;5019756;28;20038;-72
2021/09/22 04:21:20;;;;;;;3.38;2.38;;;;;;;;;;5021159;28;20092;-66
2021/09/22 04:23:46;;;;;;;3.42;2.15;;;;;;;;;;5019406;28;20030;-73
2021/09/22 04:26:12;;;;;;;5.57;2.15;;;;;;;;;;5019026;28;20029;-72
2021/09/22 04:28:39;;;;;;;3.28;2.33;;;;;;;;;;5013831;28;20026;-71
2021/09/22 04:31:05;;;;;;;3.33;2.10;;;;;;;;;;5009995;28;20042;-69
2021/09/22 04:33:31;;;;;;;3.40;2.33;;;;;;;;;;5016633;28;20030;-71
2021/09/22 04:35:57;;;;;;;2.47;2.25;;;;;;;;;;5019518;28;20050;-76
2021/09/22 04:38:24;;;;;;;3.90;2.20;;;;;;;;;;5017895;28;20025;-73
2021/09/22 04:40:51;;;;;;;3.10;2.17;;;;;;;;;;5010911;28;20113;-72
2021/09/22 04:43:17;;;;;;;3.88;2.70;;;;;;;;;;5009375;28;20030;-68
2021/09/22 04:45:45;;;;;;;3.92;2.30;;;;;;;;;;5016075;28;20375;-71
2021/09/22 04:48:11;;;;;;;3.40;2.58;;;;;;;;;;5017074;28;20041;-71
2021/09/22 04:50:37;;;;;;;3.42;2.60;;;;;;;;;;5016048;28;20053;-71
2021/09/22 04:53:04;;;;;;;4.03;2.30;;;;;;;;;;5016192;28;20030;-73
2021/09/22 04:55:30;;;;;;;4.18;2.65;;;;;;;;;;5014892;28;20488;-73
2021/09/22 04:57:56;;;;;;;5.20;2.53;;;;;;;;;;5016452;28;20076;-71
2021/09/22 05:00:23;;;;;;;3.50;2.70;;;;;;;;;;5014590;28;20045;-73
2021/09/22 05:02:49;;;;;;;5.10;3.35;;;;;;;;;;5014474;28;20045;-72
2021/09/22 05:05:15;;;;;;;3.53;2.35;;;;;;;;;;5015944;28;20128;-70
2021/09/22 05:07:41;;;;;;;4.63;2.50;;;;;;;;;;5015912;28;20075;-74
2021/09/22 05:10:08;;;;;;;3.75;2.60;;;;;;;;;;5015845;28;20033;-73
2021/09/22 05:12:34;;;;;;;5.57;2.92;;;;;;;;;;5016272;28;20093;-70
2021/09/22 05:15:00;;;;;;;5.85;2.72;;;;;;;;;;5016283;28;20052;-74
2021/09/22 05:17:26;;;;;;;6.57;2.92;;;;;;;;;;5016688;28;20022;-69
2021/09/22 05:19:53;;;;;;;3.95;2.72;;;;;;;;;;5016759;28;20056;-69
2021/09/22 05:22:19;;;;;;;4.07;2.47;;;;;;;;;;5016847;28;20030;-71
2021/09/22 05:24:45;;;;;;;4.30;2.45;;;;;;;;;;5016892;28;20121;-70
2021/09/22 05:27:12;;;;;;;3.58;2.10;;;;;;;;;;5017322;28;20048;-67
2021/09/22 05:29:38;;;;;;;3.08;1.83;;;;;;;;;;5016018;28;20033;-72
2021/09/22 05:32:04;;;;;;;3.28;2.08;;;;;;;;;;5016304;28;20093;-72
2021/09/22 05:34:30;;;;;;;4.90;2.40;;;;;;;;;;5017027;28;20423;-70
2021/09/22 05:36:57;;;;;;;4.47;2.28;;;;;;;;;;5016557;28;20026;-72
2021/09/22 05:39:23;;;;;;;3.92;2.22;;;;;;;;;;5015934;28;20030;-71
2021/09/22 05:41:49;;;;;;;3.20;2.20;;;;;;;;;;5015964;28;20030;-67
2021/09/22 05:44:15;;;;;;;4.65;2.72;;;;;;;;;;5015029;28;20220;-70
2021/09/22 05:46:41;;;;;;;6.13;2.40;;;;;;;;;;5015755;28;20057;-72
2021/09/22 05:49:08;;;;;;;13.75;2.72;;;;;;;;;;5016542;28;20022;-71
2021/09/22 05:51:34;;;;;;;4.20;2.10;;;;;;;;;;5016608;28;20034;-72
2021/09/22 05:54:01;;;;;;;2.67;2.17;;;;;;;;;;5017533;28;20034;-71
2021/09/22 05:56:27;;;;;;;2.38;1.88;;;;;;;;;;5019079;28;20080;-68
2021/09/22 05:58:53;;;;;;;2.63;1.98;;;;;;;;;;5020356;28;20034;-71
2021/09/22 06:01:19;;;;;;;2.20;1.80;;;;;;;;;;5020292;28;20300;-73
2021/09/22 06:03:45;;;;;;;2.83;2.03;;;;;;;;;;5020499;28;20532;-67
2021/09/22 06:06:11;;;;;;;3.35;2.20;;;;;;;;;;5019161;28;20080;-74
2021/09/22 06:08:38;;;;;;;7.25;2.35;;;;;;;;;;5020348;28;20080;-73
2021/09/22 06:11:04;;;;;;;3.80;2.30;;;;;;;;;;5019514;28;20028;-65
2021/09/22 06:13:31;;;;;;;2.88;2.13;;;;;;;;;;5024313;28;20025;-71
2021/09/22 06:15:57;;;;;;;3.50;2.15;;;;;;;;;;5028629;28;20034;-73
2021/09/22 06:18:23;;;;;;;3.80;2.17;;;;;;;;;;5020507;28;20030;-69
2021/09/22 06:20:50;;;;;;;4.13;2.67;;;;;;;;;;5019852;28;20022;-74
2021/09/22 06:23:16;;;;;;;4.38;2.30;;;;;;;;;;5021510;28;20441;-73
2021/09/22 06:25:42;;;;;;;3.72;2.35;;;;;;;;;;5019569;28;20025;-71
2021/09/22 06:28:08;;;;;;;3.72;2.25;;;;;;;;;;5019372;28;20022;-74
2021/09/22 06:30:34;;;;;;;2.92;2.20;;;;;;;;;;5019710;28;20097;-73
2021/09/22 06:33:00;;;;;;;5.53;2.38;;;;;;;;;;5018928;28;20041;-67
2021/09/22 06:35:27;;;;;;;3.28;1.80;;;;;;;;;;5018953;28;20030;-72
2021/09/22 06:37:53;;;;;;;4.10;2.40;;;;;;;;;;5018339;28;20057;-72
2021/09/22 06:40:23;;;;;;;3.83;2.00;;;;;;;;;;5022188;28;20078;-73
2021/09/22 06:42:49;;;;;;;3.65;2.30;;;;;;;;;;5017921;28;20049;-69
2021/09/22 06:45:16;;;;;;;3.50;2.78;;;;;;;;;;5018376;28;20022;-71
2021/09/22 06:47:42;;;;;;;4.15;2.30;;;;;;;;;;5019202;28;20018;-71
2021/09/22 06:50:11;;;;;;;5.20;2.45;;;;;;;;;;5018458;28;20022;-68
2021/09/22 06:52:37;;;;;;;2.75;2.10;;;;;;;;;;5017191;28;20057;-72
2021/09/22 06:55:04;;;;;;;2.55;2.22;;;;;;;;;;5022753;28;20033;-70
2021/09/22 06:57:31;;;;;;;6.28;3.13;;;;;;;;;;5020760;28;20022;-70
2021/09/22 06:59:57;;;;;;;4.60;2.55;;;;;;;;;;5019045;28;20433;-65
2021/09/22 07:02:23;;;;;;;3.70;2.30;;;;;;;;;;5019530;28;20320;-72
2021/09/22 07:04:50;;;;;;;4.60;2.30;;;;;;;;;;5020551;28;20069;-73
2021/09/22 07:07:16;;;;;;;4.03;2.33;;;;;;;;;;5021881;28;20035;-63
2021/09/22 07:09:42;;;;;;;4.00;2.30;;;;;;;;;;5017118;28;20022;-72
2021/09/22 07:12:08;;;;;;;5.43;2.42;;;;;;;;;;5016797;28;20034;-72
2021/09/22 07:14:34;;;;;;;3.55;2.25;;;;;;;;;;5018104;28;20034;-71
2021/09/22 07:17:01;;;;;;;3.38;2.30;;;;;;;;;;5016455;28;20068;-72
2021/09/22 07:19:27;;;;;;;2.53;2.10;;;;;;;;;;5017895;28;20026;-70
2021/09/22 07:21:53;;;;;;;3.38;2.00;;;;;;;;;;5018014;28;20468;-71
2021/09/22 07:24:19;;;;;;;3.88;2.17;;;;;;;;;;5018106;28;20439;-72
2021/09/22 07:26:45;;;;;;;4.57;2.30;;;;;;;;;;5018375;28;20036;-67
2021/09/22 07:29:11;;;;;;;7.82;2.47;;;;;;;;;;5018087;28;20026;-71
2021/09/22 07:31:37;;;;;;;4.82;2.28;;;;;;;;;;5017979;28;20022;-74
2021/09/22 07:34:04;;;;;;;2.85;1.90;;;;;;;;;;5018660;28;20376;-73
2021/09/22 07:36:30;;;;;;;5.88;2.35;;;;;;;;;;5016986;28;20022;-71
2021/09/22 07:38:56;;;;;;;3.63;2.13;;;;;;;;;;5017660;28;20050;-72
2021/09/22 07:41:23;;;;;;;5.55;2.20;;;;;;;;;;5021967;28;20037;-71
2021/09/22 07:43:49;;;;;;;5.53;2.55;;;;;;;;;;5019554;28;20026;-68
2021/09/22 07:46:15;;;;;;;9.57;2.45;;;;;;;;;;5020404;28;20026;-71
2021/09/22 07:48:41;;;;;;;7.57;2.45;;;;;;;;;;5019162;28;20029;-71
2021/09/22 07:51:07;;;;;;;6.43;2.60;;;;;;;;;;5018987;28;20061;-72
2021/09/22 07:53:33;;;;;;;3.55;2.42;;;;;;;;;;5019347;28;20072;-74
2021/09/22 07:56:00;;;;;;;4.78;2.55;;;;;;;;;;5019765;28;20096;-72
2021/09/22 07:58:26;;;;;;;3.85;2.58;;;;;;;;;;5020697;28;20041;-73
2021/09/22 08:00:52;;;;;;;5.60;2.20;;;;;;;;;;5020409;28;20073;-70
2021/09/22 08:03:18;;;;;;;2.42;2.05;;;;;;;;;;5017846;28;20037;-71
2021/09/22 08:05:44;;;;;;;10.00;3.47;;;;;;;;;;5020639;28;20030;-73
2021/09/22 08:08:10;;;;;;;6.47;4.07;;;;;;;;;;5017246;28;20029;-71
2021/09/22 08:10:37;;;;;;;4.72;2.30;;;;;;;;;;5018318;28;20026;-70
2021/09/22 08:13:03;;;;;;;3.65;2.00;;;;;;;;;;5017898;28;20026;-73
2021/09/22 08:15:29;;;;;;;3.50;2.20;;;;;;;;;;5018988;28;20028;-74
2021/09/22 08:17:55;;;;;;;7.43;2.38;;;;;;;;;;5019247;28;20030;-70
2021/09/22 08:20:22;;;;;;;6.40;2.35;;;;;;;;;;5018011;28;20030;-73
2021/09/22 08:22:48;;;;;;;4.10;2.30;;;;;;;;;;5018139;28;20079;-73
2021/09/22 08:25:15;;;;;;;2.97;1.90;;;;;;;;;;5023855;28;20025;-67
2021/09/22 08:27:41;;;;;;;8.63;2.40;;;;;;;;;;5027285;28;20030;-66
2021/09/22 08:30:08;;;;;;;4.68;2.42;;;;;;;;;;5026696;28;20022;-66
2021/09/22 08:32:34;;;;;;;3.20;2.00;;;;;;;;;;5025191;28;20033;-66
2021/09/22 08:35:00;;;;;;;4.13;3.30;;;;;;;;;;5026214;28;20033;-67
2021/09/22 08:37:26;;;;;;;4.72;2.20;;;;;;;;;;5027129;28;20101;-66
2021/09/22 08:39:53;;;;;;;4.90;2.20;;;;;;;;;;5026934;28;20033;-66
2021/09/22 08:42:19;;;;;;;7.20;2.10;;;;;;;;;;5026612;28;20030;-70
2021/09/22 08:44:46;;;;;;;4.85;2.10;;;;;;;;;;5025888;28;20477;-68
2021/09/22 08:47:12;;;;;;;5.95;2.08;;;;;;;;;;5025875;28;20057;-66
2021/09/22 08:49:40;;;;;;;3.85;2.30;;;;;;;;;;5026401;28;20021;-66
2021/09/22 08:52:06;;;;;;;2.20;1.75;;;;;;;;;;5026255;28;20085;-66
2021/09/22 08:54:32;;;;;;;5.32;2.35;;;;;;;;;;5026036;28;20021;-66
2021/09/22 08:57:03;;;;;;;3.78;2.20;;;;;;;;;;5026327;28;20080;-66
2021/09/22 08:59:29;;;;;;;5.15;2.20;;;;;;;;;;5025779;28;20053;-66
2021/09/22 09:02:09;;;;;;;7.07;2.03;;;;;;;;;;5025425;28;20057;-69
2021/09/22 09:04:35;;;;;;;8.38;2.20;;;;;;;;;;5021772;28;20528;-66
2021/09/22 09:07:01;;;;;;;7.25;2.78;;;;;;;;;;5025409;28;20025;-67
2021/09/22 09:09:41;;;;;;;5.20;2.58;;;;;;;;;;5026406;28;20026;-71
2021/09/22 09:12:18;;;;;;;7.22;2.40;;;;;;;;;;5026326;28;20022;-66
2021/09/22 09:14:51;;;;;;;7.45;1.95;;;;;;;;;;5024018;28;20094;-69
2021/09/22 09:17:29;;;;;;;7.65;2.60;;;;;;;;;;5018765;28;20025;-75
2021/09/22 09:19:57;;;;;;;8.10;2.10;;;;;;;;;;5020932;28;20053;-65
2021/09/22 09:22:23;;;;;;;4.60;2.60;;;;;;;;;;5021500;28;20196;-71
2021/09/22 09:24:49;;;;;;;4.68;2.10;;;;;;;;;;5018136;28;20030;-71
2021/09/22 09:27:24;;;;;;;4.88;2.50;;;;;;;;;;5019006;28;20030;-68
2021/09/22 09:29:50;;;;;;;;;;;;;;;;;;5020893;28;20392;-67
2021/09/22 09:32:16;;;;;;;3.45;2.00;;;;;;;;;;5020037;28;19906;-71
2021/09/22 09:35:00;;;;;;;3.10;2.00;;;;;;;;;;5021446;28;20053;-72
2021/09/22 09:37:53;;;;;;;4.18;1.90;;;;;;;;;;5019928;28;20446;-73
2021/09/22 09:40:19;;;;;;;3.42;2.22;;;;;;;;;;5016315;28;20088;-71
2021/09/22 09:42:46;;;;;;;4.03;1.90;;;;;;;;;;5020214;28;20105;-73
2021/09/22 09:45:12;;;;;;;7.88;2.58;;;;;;;;;;5019688;28;20085;-66
2021/09/22 09:47:40;;;;;;;6.10;2.25;;;;;;;;;;5020408;28;20048;-67
2021/09/22 09:50:16;;;;;;;3.65;2.00;;;;;;;;;;5017244;28;20442;-74
2021/09/22 09:52:53;;;;;;;2.90;2.15;;;;;;;;;;5016100;28;20037;-68
2021/09/22 09:55:19;;;;;;;13.20;2.92;;;;;;;;;;5016688;28;20049;-71
2021/09/22 09:57:50;;;;;;;9.98;2.28;;;;;;;;;;5017472;28;20057;-74
2021/09/22 10:00:17;;;;;;;5.15;2.53;;;;;;;;;;5016536;28;20095;-70
2021/09/22 10:02:43;;;;;;;7.32;1.80;;;;;;;;;;5017679;28;20097;-72
2021/09/22 10:05:09;;;;;;;2.28;1.70;;;;;;;;;;5017991;28;20420;-73
2021/09/22 10:07:35;;;;;;;2.88;1.80;;;;;;;;;;5016878;28;20100;-72
2021/09/22 10:10:03;;;;;;;9.32;2.30;;;;;;;;;;5019711;28;20032;-73
2021/09/22 10:12:29;;;;;;;6.57;2.65;;;;;;;;;;5017343;28;20050;-74
2021/09/22 10:14:56;;;;;;;4.72;2.08;;;;;;;;;;5017498;28;20037;-71
2021/09/22 10:17:24;;;;;;;2.03;1.65;;;;;;;;;;5017450;28;20469;-72
2021/09/22 10:19:50;;;;;;;3.88;1.95;;;;;;;;;;5017469;28;20100;-75
2021/09/22 10:22:16;;;;;;;2.50;1.60;;;;;;;;;;5017148;28;20129;-71
2021/09/22 10:24:43;;;;;;;4.30;1.83;;;;;;;;;;5016907;28;20022;-70
2021/09/22 10:27:16;;;;;;;5.63;2.00;;;;;;;;;;5017615;28;20018;-74
2021/09/22 10:30:03;;;;;;;4.13;1.98;;;;;;;;;;5016451;28;20061;-73
2021/09/22 10:32:42;;;;;;;6.65;1.95;;;;;;;;;;5021966;28;20018;-66
2021/09/22 10:35:26;;;;;;;3.92;1.73;;;;;;;;;;5020584;28;20052;-67
2021/09/22 10:37:53;;;;;;;3.97;2.10;;;;;;;;;;5023669;28;20026;-66
2021/09/22 10:40:48;;;;;;;6.78;2.65;;;;;;;;;;5021480;28;20021;-70
2021/09/22 10:43:14;;;;;;;8.00;2.00;;;;;;;;;;5006728;28;20366;-71
2021/09/22 10:45:40;;;;;;;2.78;1.85;;;;;;;;;;5005988;28;20389;-66
2021/09/22 10:48:16;;;;;;;3.10;1.70;;;;;;;;;;5026239;28;20049;-71
2021/09/22 10:50:42;;;;;;;3.42;2.25;;;;;;;;;;5018149;28;20089;-73
2021/09/22 10:53:26;;;;;;;2.17;1.80;;;;;;;;;;5019126;28;20048;-73
2021/09/22 10:56:07;;;;;;;3.73;2.37;;;;;;;;;;5017806;28;20026;-71
2021/09/22 10:58:38;;;;;;;4.40;2.08;;;;;;;;;;5005059;28;20338;-73
2021/09/22 11:01:05;;;;;;;4.43;1.80;;;;;;;;;;4996441;28;20077;-72
2021/09/22 11:03:46;;;;;;;3.53;1.75;;;;;;;;;;4995665;28;20117;-73
2021/09/22 11:06:31;;;;;;;4.90;1.95;;;;;;;;;;4996890;28;20038;-73
2021/09/22 11:09:06;;;;;;;5.70;2.05;;;;;;;;;;4997009;28;20027;-73
2021/09/22 11:11:51;;;;;;;4.28;2.10;;;;;;;;;;4996909;28;20026;-70
2021/09/22 11:14:35;;;;;;;3.72;1.80;;;;;;;;;;4996691;28;20482;-72
2021/09/22 11:17:03;;;;;;;5.10;2.40;;;;;;;;;;4997455;28;20034;-74
2021/09/22 11:19:30;;;;;;;11.80;2.30;;;;;;;;;;4997633;28;20026;-70
2021/09/22 11:21:57;;;;;;;7.57;2.00;;;;;;;;;;4996703;28;20095;-72
2021/09/22 11:24:26;;;;;;;4.25;1.85;;;;;;;;;;4997605;28;20042;-73
2021/09/22 11:26:53;;;;;;;4.15;2.05;;;;;;;;;;4997215;28;20082;-73
2021/09/22 11:29:29;;;;;;;5.10;2.95;;;;;;;;;;4997503;28;20123;-74
2021/09/22 11:31:56;;;;;;;9.23;4.25;;;;;;;;;;4996914;28;20026;-73
2021/09/22 11:34:29;;;;;;;3.20;1.83;;;;;;;;;;4996516;28;20022;-74
2021/09/22 11:37:06;;;;;;;3.63;2.55;;;;;;;;;;4996711;28;20180;-72
2021/09/22 11:39:32;;;;;;;4.80;2.03;;;;;;;;;;4997761;28;20029;-72
2021/09/22 11:41:58;;;;;;;3.45;1.67;;;;;;;;;;4997815;28;20082;-73
2021/09/22 11:44:32;;;;;;;2.88;1.83;;;;;;;;;;4997534;28;20081;-67
2021/09/22 11:46:58;;;;;;;5.63;2.53;;;;;;;;;;4998767;28;20050;-64
2021/09/22 11:49:31;;;;;;;6.38;3.00;;;;;;;;;;4998927;28;20022;-71
2021/09/22 11:52:15;;;;;;;7.95;3.30;;;;;;;;;;4997206;28;20407;-71
2021/09/22 11:54:46;;;;;;;7.07;3.15;;;;;;;;;;4996647;28;20027;-74
2021/09/22 11:57:15;;;;;;;3.03;2.25;;;;;;;;;;4997694;28;20520;-73
2021/09/22 11:59:43;;;;;;;4.32;2.17;;;;;;;;;;4996681;28;20076;-74
2021/09/22 12:02:09;;;;;;;3.83;2.00;;;;;;;;;;4997490;28;20177;-73
2021/09/22 12:04:36;;;;;;;3.22;1.80;;;;;;;;;;4997144;28;20042;-73
2021/09/22 12:07:04;;;;;;;5.82;2.75;;;;;;;;;;4997334;28;20065;-74
2021/09/22 12:09:49;;;;;;;4.38;2.20;;;;;;;;;;4998176;28;20023;-72
2021/09/22 12:12:17;;;;;;;8.05;3.55;;;;;;;;;;4997704;28;20057;-73
2021/09/22 12:14:54;;;;;;;3.70;1.90;;;;;;;;;;4997850;28;20065;-72
2021/09/22 12:17:21;;;;;;;4.03;2.30;;;;;;;;;;4996051;28;20038;-72
2021/09/22 12:19:48;;;;;;;2.38;1.75;;;;;;;;;;4995843;28;20068;-73
2021/09/22 12:22:15;;;;;;;4.78;2.70;;;;;;;;;;4996135;28;20034;-72
2021/09/22 12:24:44;;;;;;;4.00;1.70;;;;;;;;;;4995290;28;20033;-72
2021/09/22 12:27:21;;;;;;;3.00;2.05;;;;;;;;;;4995959;28;20038;-72
2021/09/22 12:29:51;;;;;;;2.78;1.98;;;;;;;;;;4996662;28;20475;-73
2021/09/22 12:32:17;;;;;;;6.30;2.22;;;;;;;;;;4996101;28;20382;-72
2021/09/22 12:34:44;;;;;;;3.20;2.00;;;;;;;;;;4996089;28;20022;-72
2021/09/22 12:37:16;;;;;;;3.25;1.75;;;;;;;;;;4996245;28;20057;-73
2021/09/22 12:39:56;;;;;;;2.63;1.77;;;;;;;;;;4995983;28;20129;-70
2021/09/22 12:42:23;;;;;;;2.55;1.70;;;;;;;;;;4995606;28;20022;-73
2021/09/22 12:44:53;;;;;;;2.33;2.00;;;;;;;;;;4995897;28;20101;-71
2021/09/22 12:47:19;;;;;;;5.95;1.80;;;;;;;;;;4995743;28;20025;-73
2021/09/22 12:50:03;;;;;;;3.70;2.35;;;;;;;;;;4994814;28;20036;-69
2021/09/22 12:52:29;;;;;;;2.38;1.95;;;;;;;;;;4994252;28;20026;-72
2021/09/22 12:54:55;;;;;;;4.38;2.03;;;;;;;;;;4995328;28;20501;-72
2021/09/22 12:57:21;;;;;;;1.85;1.70;;;;;;;;;;4995888;28;20026;-75
2021/09/22 12:59:47;;;;;;;4.35;2.10;;;;;;;;;;4994719;28;20026;-68
2021/09/22 13:02:20;;;;;;;2.83;1.90;;;;;;;;;;4994143;28;20030;-71
2021/09/22 13:04:50;;;;;;;3.40;2.08;;;;;;;;;;4994113;28;20056;-73
2021/09/22 13:07:22;;;;;;;3.10;1.80;;;;;;;;;;5008137;28;20026;-73
2021/09/22 13:09:59;;;;;;;2.60;1.73;;;;;;;;;;4997690;28;20054;-76
2021/09/22 13:12:29;;;;;;;5.82;2.10;;;;;;;;;;4994841;28;20030;-71
2021/09/22 13:14:55;;;;;;;4.85;1.80;;;;;;;;;;4994841;28;20061;-71
2021/09/22 13:17:21;;;;;;;3.45;1.80;;;;;;;;;;5009721;28;20022;-71
2021/09/22 13:19:47;;;;;;;3.75;2.17;;;;;;;;;;4994321;28;20041;-71
2021/09/22 13:22:14;;;;;;;2.80;1.75;;;;;;;;;;4993980;28;20026;-72
2021/09/22 13:24:40;;;;;;;3.88;2.28;;;;;;;;;;4993895;28;20034;-73
2021/09/22 13:27:06;;;;;;;3.88;2.05;;;;;;;;;;4993667;28;20034;-73
2021/09/22 13:29:32;;;;;;;3.28;1.80;;;;;;;;;;4993403;28;20019;-72
2021/09/22 13:32:00;;;;;;;4.47;2.00;;;;;;;;;;4996436;28;20018;-72
2021/09/22 13:34:29;;;;;;;8.38;2.13;;;;;;;;;;5021949;28;20100;-74
2021/09/22 13:36:56;;;;;;;5.22;2.00;;;;;;;;;;5030862;28;20060;-73
2021/09/22 13:39:23;;;;;;;3.78;2.10;;;;;;;;;;5031159;28;20025;-74
2021/09/22 13:41:49;;;;;;;4.28;1.70;;;;;;;;;;5031340;28;20033;-73
2021/09/22 13:44:15;;;;;;;6.00;2.25;;;;;;;;;;5031277;28;20384;-74
2021/09/22 13:46:47;;;;;;;3.90;1.65;;;;;;;;;;5031029;28;20026;-73
2021/09/22 13:49:14;;;;;;;2.95;1.90;;;;;;;;;;5032254;28;20105;-73
2021/09/22 13:51:40;;;;;;;2.47;1.80;;;;;;;;;;5032249;28;20072;-73
2021/09/22 13:54:07;;;;;;;2.85;1.70;;;;;;;;;;5048110;28;20427;-73
2021/09/22 13:56:33;;;;;;;4.30;1.90;;;;;;;;;;5032286;28;20439;-73
2021/09/22 13:58:59;;;;;;;6.43;2.03;;;;;;;;;;5033084;28;20033;-73
2021/09/22 14:01:25;;;;;;;4.03;1.80;;;;;;;;;;5033049;28;20085;-74
2021/09/22 14:03:51;;;;;;;3.35;1.90;;;;;;;;;;5032745;28;20131;-73
2021/09/22 14:06:18;;;;;;;2.58;2.13;;;;;;;;;;5032452;28;20057;-73
2021/09/22 14:08:44;;;;;;;8.10;2.90;;;;;;;;;;5032059;28;20054;-73
2021/09/22 14:11:10;;;;;;;1.92;1.67;;;;;;;;;;5032135;28;20468;-71
2021/09/22 14:13:38;;;;;;;2.45;1.60;;;;;;;;;;5032699;28;20112;-73
2021/09/22 14:16:04;;;;;;;4.07;1.60;;;;;;;;;;5032199;28;20022;-73
2021/09/22 14:18:30;;;;;;;3.05;1.85;;;;;;;;;;5034862;28;20025;-73
2021/09/22 14:20:57;;;;;;;3.50;1.83;;;;;;;;;;5036167;28;20025;-73
2021/09/22 14:23:24;;;;;;;4.13;1.70;;;;;;;;;;5035961;28;20512;-74
2021/09/22 14:25:51;;;;;;;1.60;1.50;;;;;;;;;;5036840;28;20021;-72
2021/09/22 14:28:18;;;;;;;9.23;2.05;;;;;;;;;;5037292;28;20032;-73
2021/09/22 14:30:45;;;;;;;8.23;2.38;;;;;;;;;;5038920;28;20022;-70
2021/09/22 14:33:11;;;;;;;7.93;2.03;;;;;;;;;;5037117;28;20029;-72
2021/09/22 14:35:39;;;;;;;4.72;2.20;;;;;;;;;;5036358;28;20053;-73
2021/09/22 14:38:06;;;;;;;4.57;2.13;;;;;;;;;;5036435;28;20026;-73
2021/09/22 14:40:33;;;;;;;6.43;2.80;;;;;;;;;;5034617;28;20029;-73
2021/09/22 14:42:59;;;;;;;4.22;2.00;;;;;;;;;;5035641;28;20029;-71
2021/09/22 14:45:25;;;;;;;3.35;2.05;;;;;;;;;;5036277;28;20025;-72